sensor_id;sensor_type;location;lat;lon;timestamp;P1;durP1;ratioP1;P2;durP2;ratioP2
34988;SDS011;21192;40.182;44.516;2024-02-23T00:00:53;15.82;;;9.48;;
34988;SDS011;21192;40.182;44.516;2024-02-23T00:03:19;15.57;;;8.68;;
34988;SDS011;21192;40.182;44.516;2024-02-23T00:05:45;17.13;;;9.07;;
34988;SDS011;21192;40.182;44.516;2024-02-23T00:08:11;21.23;;;9.95;;
34988;SDS011;21192;40.182;44.516;2024-02-23T00:10:37;16.33;;;9.80;;
34988;SDS011;21192;40.182;44.516;2024-02-23T00:13:03;18.63;;;10.60;;
34988;SDS011;21192;40.182;44.516;2024-02-23T00:15:29;19.83;;;10.88;;
34988;SDS011;21192;40.182;44.516;2024-02-23T00:17:55;16.42;;;10.13;;
34988;SDS011;21192;40.182;44.516;2024-02-23T00:20:21;17.77;;;10.13;;
34988;SDS011;21192;40.182;44.516;2024-02-23T00:22:47;15.13;;;10.60;;
34988;SDS011;21192;40.182;44.516;2024-02-23T00:25:13;14.70;;;10.50;;
34988;SDS011;21192;40.182;44.516;2024-02-23T00:27:39;21.08;;;10.60;;
34988;SDS011;21192;40.182;44.516;2024-02-23T00:30:07;14.48;;;10.38;;
34988;SDS011;21192;40.182;44.516;2024-02-23T00:32:33;19.70;;;11.57;;
34988;SDS011;21192;40.182;44.516;2024-02-23T00:34:59;16.15;;;10.57;;
34988;SDS011;21192;40.182;44.516;2024-02-23T00:37:24;18.80;;;10.68;;
34988;SDS011;21192;40.182;44.516;2024-02-23T00:39:50;14.52;;;9.90;;
34988;SDS011;21192;40.182;44.516;2024-02-23T00:42:16;19.23;;;11.18;;
34988;SDS011;21192;40.182;44.516;2024-02-23T00:44:42;16.85;;;10.73;;
34988;SDS011;21192;40.182;44.516;2024-02-23T00:47:08;17.20;;;10.77;;
34988;SDS011;21192;40.182;44.516;2024-02-23T00:49:34;18.75;;;11.02;;
34988;SDS011;21192;40.182;44.516;2024-02-23T00:52:00;20.38;;;10.30;;
34988;SDS011;21192;40.182;44.516;2024-02-23T00:54:26;22.77;;;11.85;;
34988;SDS011;21192;40.182;44.516;2024-02-23T00:56:52;16.88;;;10.50;;
34988;SDS011;21192;40.182;44.516;2024-02-23T00:59:17;18.83;;;11.15;;
34988;SDS011;21192;40.182;44.516;2024-02-23T01:01:43;16.58;;;10.80;;
34988;SDS011;21192;40.182;44.516;2024-02-23T01:04:10;21.30;;;11.52;;
34988;SDS011;21192;40.182;44.516;2024-02-23T01:06:36;21.30;;;10.98;;
34988;SDS011;21192;40.182;44.516;2024-02-23T01:09:02;19.73;;;10.32;;
34988;SDS011;21192;40.182;44.516;2024-02-23T01:11:29;14.73;;;10.02;;
34988;SDS011;21192;40.182;44.516;2024-02-23T01:13:55;18.70;;;10.27;;
34988;SDS011;21192;40.182;44.516;2024-02-23T01:16:22;19.13;;;9.73;;
34988;SDS011;21192;40.182;44.516;2024-02-23T01:18:47;17.27;;;10.48;;
34988;SDS011;21192;40.182;44.516;2024-02-23T01:21:13;20.55;;;10.65;;
34988;SDS011;21192;40.182;44.516;2024-02-23T01:23:39;18.20;;;9.88;;
34988;SDS011;21192;40.182;44.516;2024-02-23T01:26:05;20.10;;;10.82;;
34988;SDS011;21192;40.182;44.516;2024-02-23T01:28:31;15.18;;;9.02;;
34988;SDS011;21192;40.182;44.516;2024-02-23T01:30:57;15.57;;;9.20;;
34988;SDS011;21192;40.182;44.516;2024-02-23T01:33:22;11.38;;;7.32;;
34988;SDS011;21192;40.182;44.516;2024-02-23T01:35:49;12.68;;;7.53;;
34988;SDS011;21192;40.182;44.516;2024-02-23T01:38:16;11.55;;;6.45;;
34988;SDS011;21192;40.182;44.516;2024-02-23T01:40:45;10.45;;;6.30;;
34988;SDS011;21192;40.182;44.516;2024-02-23T01:43:12;9.50;;;6.47;;
34988;SDS011;21192;40.182;44.516;2024-02-23T01:45:38;10.82;;;7.47;;
34988;SDS011;21192;40.182;44.516;2024-02-23T01:48:04;13.45;;;7.35;;
34988;SDS011;21192;40.182;44.516;2024-02-23T01:50:31;13.95;;;7.32;;
34988;SDS011;21192;40.182;44.516;2024-02-23T01:53:00;13.88;;;7.50;;
34988;SDS011;21192;40.182;44.516;2024-02-23T01:55:27;9.45;;;7.28;;
34988;SDS011;21192;40.182;44.516;2024-02-23T01:57:56;10.60;;;6.82;;
34988;SDS011;21192;40.182;44.516;2024-02-23T02:00:22;11.55;;;6.63;;
34988;SDS011;21192;40.182;44.516;2024-02-23T02:02:48;10.27;;;6.13;;
34988;SDS011;21192;40.182;44.516;2024-02-23T02:05:14;8.82;;;5.20;;
34988;SDS011;21192;40.182;44.516;2024-02-23T02:07:43;9.23;;;5.60;;
34988;SDS011;21192;40.182;44.516;2024-02-23T02:10:10;8.00;;;5.45;;
34988;SDS011;21192;40.182;44.516;2024-02-23T02:12:36;8.32;;;5.50;;
34988;SDS011;21192;40.182;44.516;2024-02-23T02:15:02;7.30;;;5.57;;
34988;SDS011;21192;40.182;44.516;2024-02-23T02:17:29;9.43;;;5.90;;
34988;SDS011;21192;40.182;44.516;2024-02-23T02:19:55;9.63;;;5.75;;
34988;SDS011;21192;40.182;44.516;2024-02-23T02:22:24;10.63;;;6.57;;
34988;SDS011;21192;40.182;44.516;2024-02-23T02:24:50;12.98;;;6.53;;
34988;SDS011;21192;40.182;44.516;2024-02-23T02:27:15;6.97;;;5.15;;
34988;SDS011;21192;40.182;44.516;2024-02-23T02:29:41;9.57;;;5.93;;
34988;SDS011;21192;40.182;44.516;2024-02-23T02:32:08;7.35;;;5.82;;
34988;SDS011;21192;40.182;44.516;2024-02-23T02:34:34;8.23;;;5.25;;
34988;SDS011;21192;40.182;44.516;2024-02-23T02:37:00;8.02;;;5.78;;
34988;SDS011;21192;40.182;44.516;2024-02-23T02:39:26;7.88;;;6.05;;
34988;SDS011;21192;40.182;44.516;2024-02-23T02:41:52;10.30;;;5.90;;
34988;SDS011;21192;40.182;44.516;2024-02-23T02:44:18;7.60;;;5.68;;
34988;SDS011;21192;40.182;44.516;2024-02-23T02:46:44;8.07;;;5.75;;
34988;SDS011;21192;40.182;44.516;2024-02-23T02:49:11;9.25;;;5.95;;
34988;SDS011;21192;40.182;44.516;2024-02-23T02:51:37;6.65;;;5.20;;
34988;SDS011;21192;40.182;44.516;2024-02-23T02:54:04;8.63;;;5.55;;
34988;SDS011;21192;40.182;44.516;2024-02-23T02:56:29;8.20;;;4.80;;
34988;SDS011;21192;40.182;44.516;2024-02-23T02:58:55;7.85;;;5.15;;
34988;SDS011;21192;40.182;44.516;2024-02-23T03:01:21;6.75;;;4.82;;
34988;SDS011;21192;40.182;44.516;2024-02-23T03:03:47;6.22;;;4.60;;
34988;SDS011;21192;40.182;44.516;2024-02-23T03:06:13;8.75;;;5.30;;
34988;SDS011;21192;40.182;44.516;2024-02-23T03:08:41;8.98;;;5.35;;
34988;SDS011;21192;40.182;44.516;2024-02-23T03:11:07;12.77;;;5.40;;
34988;SDS011;21192;40.182;44.516;2024-02-23T03:13:33;6.40;;;4.63;;
34988;SDS011;21192;40.182;44.516;2024-02-23T03:15:59;7.25;;;4.72;;
34988;SDS011;21192;40.182;44.516;2024-02-23T03:18:25;8.48;;;5.03;;
34988;SDS011;21192;40.182;44.516;2024-02-23T03:20:53;6.82;;;4.80;;
34988;SDS011;21192;40.182;44.516;2024-02-23T03:23:19;8.13;;;4.95;;
34988;SDS011;21192;40.182;44.516;2024-02-23T03:25:44;9.27;;;5.45;;
34988;SDS011;21192;40.182;44.516;2024-02-23T03:28:10;7.25;;;5.30;;
34988;SDS011;21192;40.182;44.516;2024-02-23T03:30:36;6.65;;;4.80;;
34988;SDS011;21192;40.182;44.516;2024-02-23T03:33:02;8.50;;;5.55;;
34988;SDS011;21192;40.182;44.516;2024-02-23T03:35:28;9.65;;;5.43;;
34988;SDS011;21192;40.182;44.516;2024-02-23T03:37:54;7.07;;;5.45;;
34988;SDS011;21192;40.182;44.516;2024-02-23T03:40:20;10.43;;;5.68;;
34988;SDS011;21192;40.182;44.516;2024-02-23T03:42:46;10.93;;;6.15;;
34988;SDS011;21192;40.182;44.516;2024-02-23T03:45:11;8.00;;;5.95;;
34988;SDS011;21192;40.182;44.516;2024-02-23T03:47:38;9.25;;;5.80;;
34988;SDS011;21192;40.182;44.516;2024-02-23T03:50:04;12.25;;;7.28;;
34988;SDS011;21192;40.182;44.516;2024-02-23T03:52:31;11.25;;;6.38;;
34988;SDS011;21192;40.182;44.516;2024-02-23T03:54:56;11.68;;;8.02;;
34988;SDS011;21192;40.182;44.516;2024-02-23T03:57:22;9.48;;;6.93;;
34988;SDS011;21192;40.182;44.516;2024-02-23T03:59:52;10.50;;;7.10;;
34988;SDS011;21192;40.182;44.516;2024-02-23T04:02:18;13.55;;;8.02;;
34988;SDS011;21192;40.182;44.516;2024-02-23T04:04:45;13.43;;;8.90;;
34988;SDS011;21192;40.182;44.516;2024-02-23T04:07:10;14.10;;;8.90;;
34988;SDS011;21192;40.182;44.516;2024-02-23T04:09:36;13.95;;;9.10;;
34988;SDS011;21192;40.182;44.516;2024-02-23T04:12:02;19.48;;;10.25;;
34988;SDS011;21192;40.182;44.516;2024-02-23T04:14:28;20.77;;;11.13;;
34988;SDS011;21192;40.182;44.516;2024-02-23T04:16:54;18.13;;;11.32;;
34988;SDS011;21192;40.182;44.516;2024-02-23T04:19:20;17.15;;;11.50;;
34988;SDS011;21192;40.182;44.516;2024-02-23T04:21:46;18.38;;;11.38;;
34988;SDS011;21192;40.182;44.516;2024-02-23T04:24:12;17.90;;;12.25;;
34988;SDS011;21192;40.182;44.516;2024-02-23T04:26:37;17.70;;;11.88;;
34988;SDS011;21192;40.182;44.516;2024-02-23T04:29:03;21.83;;;12.70;;
34988;SDS011;21192;40.182;44.516;2024-02-23T04:31:29;18.58;;;12.35;;
34988;SDS011;21192;40.182;44.516;2024-02-23T04:33:55;19.35;;;11.98;;
34988;SDS011;21192;40.182;44.516;2024-02-23T04:36:21;20.13;;;12.85;;
34988;SDS011;21192;40.182;44.516;2024-02-23T04:38:47;19.30;;;12.52;;
34988;SDS011;21192;40.182;44.516;2024-02-23T04:41:13;16.98;;;12.07;;
34988;SDS011;21192;40.182;44.516;2024-02-23T04:43:39;20.17;;;13.10;;
34988;SDS011;21192;40.182;44.516;2024-02-23T04:46:05;21.08;;;12.85;;
34988;SDS011;21192;40.182;44.516;2024-02-23T04:48:30;18.80;;;13.02;;
34988;SDS011;21192;40.182;44.516;2024-02-23T04:50:57;21.67;;;13.27;;
34988;SDS011;21192;40.182;44.516;2024-02-23T04:53:23;21.83;;;13.13;;
34988;SDS011;21192;40.182;44.516;2024-02-23T04:55:49;18.90;;;13.85;;
34988;SDS011;21192;40.182;44.516;2024-02-23T04:58:15;18.88;;;12.45;;
34988;SDS011;21192;40.182;44.516;2024-02-23T05:00:41;18.17;;;12.95;;
34988;SDS011;21192;40.182;44.516;2024-02-23T05:03:07;18.10;;;12.90;;
34988;SDS011;21192;40.182;44.516;2024-02-23T05:05:34;24.08;;;12.48;;
34988;SDS011;21192;40.182;44.516;2024-02-23T05:08:01;18.60;;;12.00;;
34988;SDS011;21192;40.182;44.516;2024-02-23T05:10:27;20.67;;;12.95;;
34988;SDS011;21192;40.182;44.516;2024-02-23T05:12:53;20.50;;;13.68;;
34988;SDS011;21192;40.182;44.516;2024-02-23T05:15:19;21.45;;;13.20;;
34988;SDS011;21192;40.182;44.516;2024-02-23T05:17:45;18.30;;;13.15;;
34988;SDS011;21192;40.182;44.516;2024-02-23T05:20:11;22.85;;;13.57;;
34988;SDS011;21192;40.182;44.516;2024-02-23T05:22:38;20.90;;;13.38;;
34988;SDS011;21192;40.182;44.516;2024-02-23T05:25:04;24.00;;;13.25;;
34988;SDS011;21192;40.182;44.516;2024-02-23T05:27:31;23.77;;;13.98;;
34988;SDS011;21192;40.182;44.516;2024-02-23T05:29:57;30.77;;;14.07;;
34988;SDS011;21192;40.182;44.516;2024-02-23T05:32:23;25.75;;;12.50;;
34988;SDS011;21192;40.182;44.516;2024-02-23T05:34:48;27.90;;;13.90;;
34988;SDS011;21192;40.182;44.516;2024-02-23T05:37:17;34.33;;;14.20;;
34988;SDS011;21192;40.182;44.516;2024-02-23T05:39:43;30.80;;;14.70;;
34988;SDS011;21192;40.182;44.516;2024-02-23T05:42:11;29.52;;;14.82;;
34988;SDS011;21192;40.182;44.516;2024-02-23T05:44:38;27.33;;;16.88;;
34988;SDS011;21192;40.182;44.516;2024-02-23T05:47:05;26.92;;;14.60;;
34988;SDS011;21192;40.182;44.516;2024-02-23T05:49:31;28.58;;;13.93;;
34988;SDS011;21192;40.182;44.516;2024-02-23T05:51:56;22.30;;;14.18;;
34988;SDS011;21192;40.182;44.516;2024-02-23T05:54:22;25.83;;;13.27;;
34988;SDS011;21192;40.182;44.516;2024-02-23T05:56:48;22.95;;;13.38;;
34988;SDS011;21192;40.182;44.516;2024-02-23T05:59:14;19.05;;;14.07;;
34988;SDS011;21192;40.182;44.516;2024-02-23T06:01:40;19.80;;;13.02;;
34988;SDS011;21192;40.182;44.516;2024-02-23T06:04:06;20.27;;;12.85;;
34988;SDS011;21192;40.182;44.516;2024-02-23T06:06:32;18.90;;;13.30;;
34988;SDS011;21192;40.182;44.516;2024-02-23T06:08:58;24.90;;;14.05;;
34988;SDS011;21192;40.182;44.516;2024-02-23T06:11:25;31.50;;;15.70;;
34988;SDS011;21192;40.182;44.516;2024-02-23T06:13:51;26.10;;;15.90;;
34988;SDS011;21192;40.182;44.516;2024-02-23T06:16:17;21.23;;;14.18;;
34988;SDS011;21192;40.182;44.516;2024-02-23T06:18:42;21.42;;;13.43;;
34988;SDS011;21192;40.182;44.516;2024-02-23T06:21:15;22.48;;;12.93;;
34988;SDS011;21192;40.182;44.516;2024-02-23T06:23:42;20.48;;;12.43;;
34988;SDS011;21192;40.182;44.516;2024-02-23T06:26:09;17.75;;;12.68;;
34988;SDS011;21192;40.182;44.516;2024-02-23T06:28:36;18.98;;;11.05;;
34988;SDS011;21192;40.182;44.516;2024-02-23T06:31:04;17.67;;;11.63;;
34988;SDS011;21192;40.182;44.516;2024-02-23T06:33:33;20.35;;;12.35;;
34988;SDS011;21192;40.182;44.516;2024-02-23T06:35:59;16.85;;;10.38;;
34988;SDS011;21192;40.182;44.516;2024-02-23T06:38:26;16.17;;;11.65;;
34988;SDS011;21192;40.182;44.516;2024-02-23T06:40:52;21.40;;;12.05;;
34988;SDS011;21192;40.182;44.516;2024-02-23T06:43:18;22.48;;;12.75;;
34988;SDS011;21192;40.182;44.516;2024-02-23T06:45:44;17.02;;;11.65;;
34988;SDS011;21192;40.182;44.516;2024-02-23T06:48:10;16.13;;;9.93;;
34988;SDS011;21192;40.182;44.516;2024-02-23T06:50:36;17.67;;;9.65;;
34988;SDS011;21192;40.182;44.516;2024-02-23T06:53:02;13.88;;;9.45;;
34988;SDS011;21192;40.182;44.516;2024-02-23T06:55:28;16.55;;;9.93;;
34988;SDS011;21192;40.182;44.516;2024-02-23T06:57:54;18.80;;;9.90;;
34988;SDS011;21192;40.182;44.516;2024-02-23T07:00:20;19.52;;;12.10;;
34988;SDS011;21192;40.182;44.516;2024-02-23T07:02:46;20.27;;;11.88;;
34988;SDS011;21192;40.182;44.516;2024-02-23T07:05:12;17.08;;;11.02;;
34988;SDS011;21192;40.182;44.516;2024-02-23T07:07:39;16.05;;;9.80;;
34988;SDS011;21192;40.182;44.516;2024-02-23T07:10:06;23.30;;;11.85;;
34988;SDS011;21192;40.182;44.516;2024-02-23T07:12:33;23.10;;;11.60;;
34988;SDS011;21192;40.182;44.516;2024-02-23T07:14:59;20.80;;;10.80;;
34988;SDS011;21192;40.182;44.516;2024-02-23T07:17:25;22.48;;;14.32;;
34988;SDS011;21192;40.182;44.516;2024-02-23T07:19:51;18.00;;;11.55;;
34988;SDS011;21192;40.182;44.516;2024-02-23T07:22:18;18.88;;;11.73;;
34988;SDS011;21192;40.182;44.516;2024-02-23T07:24:45;17.40;;;11.23;;
34988;SDS011;21192;40.182;44.516;2024-02-23T07:27:12;15.02;;;10.25;;
34988;SDS011;21192;40.182;44.516;2024-02-23T07:29:37;15.55;;;9.40;;
34988;SDS011;21192;40.182;44.516;2024-02-23T07:32:03;23.65;;;11.75;;
34988;SDS011;21192;40.182;44.516;2024-02-23T07:34:30;16.85;;;10.35;;
34988;SDS011;21192;40.182;44.516;2024-02-23T07:36:56;17.50;;;11.52;;
34988;SDS011;21192;40.182;44.516;2024-02-23T07:39:22;16.70;;;11.10;;
34988;SDS011;21192;40.182;44.516;2024-02-23T07:41:48;18.48;;;11.23;;
34988;SDS011;21192;40.182;44.516;2024-02-23T07:44:15;15.85;;;11.60;;
34988;SDS011;21192;40.182;44.516;2024-02-23T07:46:40;19.48;;;14.30;;
34988;SDS011;21192;40.182;44.516;2024-02-23T07:49:07;19.45;;;14.32;;
34988;SDS011;21192;40.182;44.516;2024-02-23T07:51:32;27.75;;;15.05;;
34988;SDS011;21192;40.182;44.516;2024-02-23T07:53:58;19.67;;;14.18;;
34988;SDS011;21192;40.182;44.516;2024-02-23T07:56:24;27.05;;;15.32;;
34988;SDS011;21192;40.182;44.516;2024-02-23T07:58:50;23.52;;;16.70;;
34988;SDS011;21192;40.182;44.516;2024-02-23T08:01:16;29.58;;;17.23;;
34988;SDS011;21192;40.182;44.516;2024-02-23T08:03:42;29.98;;;18.50;;
34988;SDS011;21192;40.182;44.516;2024-02-23T08:06:08;25.35;;;15.93;;
34988;SDS011;21192;40.182;44.516;2024-02-23T08:08:34;20.67;;;14.32;;
34988;SDS011;21192;40.182;44.516;2024-02-23T08:11:01;25.33;;;15.50;;
34988;SDS011;21192;40.182;44.516;2024-02-23T08:13:27;22.88;;;16.10;;
34988;SDS011;21192;40.182;44.516;2024-02-23T08:15:53;23.67;;;16.15;;
34988;SDS011;21192;40.182;44.516;2024-02-23T08:18:19;25.58;;;16.00;;
34988;SDS011;21192;40.182;44.516;2024-02-23T08:20:47;20.15;;;14.10;;
34988;SDS011;21192;40.182;44.516;2024-02-23T08:23:13;22.05;;;16.00;;
34988;SDS011;21192;40.182;44.516;2024-02-23T08:25:39;22.40;;;14.82;;
34988;SDS011;21192;40.182;44.516;2024-02-23T08:28:06;20.63;;;13.85;;
34988;SDS011;21192;40.182;44.516;2024-02-23T08:30:32;15.20;;;11.50;;
34988;SDS011;21192;40.182;44.516;2024-02-23T08:32:58;17.25;;;12.90;;
34988;SDS011;21192;40.182;44.516;2024-02-23T08:35:25;20.52;;;13.50;;
34988;SDS011;21192;40.182;44.516;2024-02-23T08:37:51;31.80;;;15.52;;
34988;SDS011;21192;40.182;44.516;2024-02-23T08:40:17;19.70;;;15.50;;
34988;SDS011;21192;40.182;44.516;2024-02-23T08:42:43;23.10;;;16.33;;
34988;SDS011;21192;40.182;44.516;2024-02-23T08:45:09;24.27;;;17.33;;
34988;SDS011;21192;40.182;44.516;2024-02-23T08:47:38;23.60;;;14.68;;
34988;SDS011;21192;40.182;44.516;2024-02-23T08:50:05;18.17;;;12.65;;
34988;SDS011;21192;40.182;44.516;2024-02-23T08:52:31;19.23;;;13.18;;
34988;SDS011;21192;40.182;44.516;2024-02-23T08:54:57;22.35;;;13.65;;
34988;SDS011;21192;40.182;44.516;2024-02-23T08:57:23;13.85;;;9.55;;
34988;SDS011;21192;40.182;44.516;2024-02-23T08:59:49;16.90;;;8.85;;
34988;SDS011;21192;40.182;44.516;2024-02-23T09:02:15;13.68;;;9.27;;
34988;SDS011;21192;40.182;44.516;2024-02-23T09:04:41;15.23;;;10.30;;
34988;SDS011;21192;40.182;44.516;2024-02-23T09:07:09;12.50;;;8.20;;
34988;SDS011;21192;40.182;44.516;2024-02-23T09:09:35;15.30;;;10.65;;
34988;SDS011;21192;40.182;44.516;2024-02-23T09:12:01;11.20;;;8.05;;
34988;SDS011;21192;40.182;44.516;2024-02-23T09:14:27;30.88;;;12.63;;
34988;SDS011;21192;40.182;44.516;2024-02-23T09:16:54;28.08;;;12.82;;
34988;SDS011;21192;40.182;44.516;2024-02-23T09:19:20;16.38;;;11.10;;
34988;SDS011;21192;40.182;44.516;2024-02-23T09:21:46;20.73;;;12.38;;
34988;SDS011;21192;40.182;44.516;2024-02-23T09:24:12;26.90;;;12.82;;
34988;SDS011;21192;40.182;44.516;2024-02-23T09:26:38;26.30;;;10.13;;
34988;SDS011;21192;40.182;44.516;2024-02-23T09:29:04;29.00;;;11.55;;
34988;SDS011;21192;40.182;44.516;2024-02-23T09:31:30;25.42;;;11.68;;
34988;SDS011;21192;40.182;44.516;2024-02-23T09:33:57;35.00;;;15.77;;
34988;SDS011;21192;40.182;44.516;2024-02-23T09:36:24;14.82;;;10.10;;
34988;SDS011;21192;40.182;44.516;2024-02-23T09:38:50;14.13;;;9.32;;
34988;SDS011;21192;40.182;44.516;2024-02-23T09:41:24;17.10;;;9.20;;
34988;SDS011;21192;40.182;44.516;2024-02-23T09:43:50;20.00;;;9.82;;
34988;SDS011;21192;40.182;44.516;2024-02-23T09:46:18;21.55;;;9.82;;
34988;SDS011;21192;40.182;44.516;2024-02-23T09:48:44;14.30;;;8.10;;
34988;SDS011;21192;40.182;44.516;2024-02-23T09:51:14;15.10;;;8.75;;
34988;SDS011;21192;40.182;44.516;2024-02-23T09:53:41;14.70;;;8.77;;
34988;SDS011;21192;40.182;44.516;2024-02-23T09:56:10;15.93;;;8.65;;
34988;SDS011;21192;40.182;44.516;2024-02-23T09:58:36;15.23;;;8.93;;
34988;SDS011;21192;40.182;44.516;2024-02-23T10:01:03;16.38;;;9.75;;
34988;SDS011;21192;40.182;44.516;2024-02-23T10:03:29;20.33;;;10.43;;
34988;SDS011;21192;40.182;44.516;2024-02-23T10:05:59;15.18;;;8.80;;
34988;SDS011;21192;40.182;44.516;2024-02-23T10:08:28;18.00;;;7.72;;
34988;SDS011;21192;40.182;44.516;2024-02-23T10:10:54;11.88;;;7.43;;
34988;SDS011;21192;40.182;44.516;2024-02-23T10:13:21;19.65;;;9.45;;
34988;SDS011;21192;40.182;44.516;2024-02-23T10:15:51;12.63;;;8.45;;
34988;SDS011;21192;40.182;44.516;2024-02-23T10:18:17;19.48;;;9.57;;
34988;SDS011;21192;40.182;44.516;2024-02-23T10:20:44;20.23;;;8.93;;
34988;SDS011;21192;40.182;44.516;2024-02-23T10:23:10;11.70;;;7.45;;
34988;SDS011;21192;40.182;44.516;2024-02-23T10:25:36;12.75;;;7.15;;
34988;SDS011;21192;40.182;44.516;2024-02-23T10:28:03;14.93;;;7.32;;
34988;SDS011;21192;40.182;44.516;2024-02-23T10:30:32;9.38;;;6.10;;
34988;SDS011;21192;40.182;44.516;2024-02-23T10:32:59;13.02;;;6.10;;
34988;SDS011;21192;40.182;44.516;2024-02-23T10:35:25;21.73;;;6.68;;
34988;SDS011;21192;40.182;44.516;2024-02-23T10:37:55;11.50;;;5.65;;
34988;SDS011;21192;40.182;44.516;2024-02-23T10:40:21;34.13;;;9.40;;
34988;SDS011;21192;40.182;44.516;2024-02-23T10:42:48;22.45;;;7.05;;
34988;SDS011;21192;40.182;44.516;2024-02-23T10:45:19;17.42;;;5.55;;
34988;SDS011;21192;40.182;44.516;2024-02-23T10:47:50;10.77;;;4.13;;
34988;SDS011;21192;40.182;44.516;2024-02-23T10:50:17;15.15;;;7.75;;
34988;SDS011;21192;40.182;44.516;2024-02-23T10:52:44;9.68;;;5.38;;
34988;SDS011;21192;40.182;44.516;2024-02-23T10:55:14;7.75;;;3.95;;
34988;SDS011;21192;40.182;44.516;2024-02-23T10:57:41;7.20;;;4.88;;
34988;SDS011;21192;40.182;44.516;2024-02-23T11:00:08;11.82;;;4.50;;
34988;SDS011;21192;40.182;44.516;2024-02-23T11:02:53;10.30;;;4.65;;
34988;SDS011;21192;40.182;44.516;2024-02-23T11:05:21;9.73;;;2.75;;
34988;SDS011;21192;40.182;44.516;2024-02-23T11:07:49;16.42;;;4.03;;
34988;SDS011;21192;40.182;44.516;2024-02-23T11:10:16;12.20;;;4.15;;
34988;SDS011;21192;40.182;44.516;2024-02-23T11:12:43;7.45;;;3.70;;
34988;SDS011;21192;40.182;44.516;2024-02-23T11:15:09;8.35;;;4.43;;
34988;SDS011;21192;40.182;44.516;2024-02-23T11:17:50;20.00;;;8.00;;
34988;SDS011;21192;40.182;44.516;2024-02-23T11:20:16;15.63;;;6.95;;
34988;SDS011;21192;40.182;44.516;2024-02-23T11:22:42;12.50;;;6.93;;
34988;SDS011;21192;40.182;44.516;2024-02-23T11:25:08;14.98;;;8.82;;
34988;SDS011;21192;40.182;44.516;2024-02-23T11:27:36;20.27;;;7.32;;
34988;SDS011;21192;40.182;44.516;2024-02-23T11:30:03;13.07;;;6.55;;
34988;SDS011;21192;40.182;44.516;2024-02-23T11:35:11;12.68;;;7.15;;
34988;SDS011;21192;40.182;44.516;2024-02-23T11:37:48;13.95;;;7.88;;
34988;SDS011;21192;40.182;44.516;2024-02-23T11:40:22;14.70;;;8.40;;
34988;SDS011;21192;40.182;44.516;2024-02-23T11:42:49;13.88;;;7.75;;
34988;SDS011;21192;40.182;44.516;2024-02-23T11:45:16;12.57;;;7.20;;
34988;SDS011;21192;40.182;44.516;2024-02-23T11:47:42;12.30;;;6.80;;
34988;SDS011;21192;40.182;44.516;2024-02-23T11:50:11;9.52;;;6.53;;
34988;SDS011;21192;40.182;44.516;2024-02-23T11:52:39;10.80;;;6.65;;
34988;SDS011;21192;40.182;44.516;2024-02-23T11:55:05;13.13;;;6.93;;
34988;SDS011;21192;40.182;44.516;2024-02-23T11:57:33;16.40;;;7.60;;
34988;SDS011;21192;40.182;44.516;2024-02-23T12:00:03;14.50;;;7.60;;
34988;SDS011;21192;40.182;44.516;2024-02-23T12:02:34;19.80;;;8.98;;
34988;SDS011;21192;40.182;44.516;2024-02-23T12:05:00;16.77;;;7.43;;
34988;SDS011;21192;40.182;44.516;2024-02-23T12:07:28;13.13;;;7.60;;
34988;SDS011;21192;40.182;44.516;2024-02-23T12:09:55;12.73;;;6.50;;
34988;SDS011;21192;40.182;44.516;2024-02-23T12:12:22;10.55;;;6.75;;
34988;SDS011;21192;40.182;44.516;2024-02-23T12:14:49;13.90;;;7.78;;
34988;SDS011;21192;40.182;44.516;2024-02-23T12:17:15;11.52;;;6.97;;
34988;SDS011;21192;40.182;44.516;2024-02-23T12:19:41;12.65;;;7.43;;
34988;SDS011;21192;40.182;44.516;2024-02-23T12:22:07;14.02;;;8.57;;
34988;SDS011;21192;40.182;44.516;2024-02-23T12:24:35;19.08;;;9.82;;
34988;SDS011;21192;40.182;44.516;2024-02-23T12:27:01;14.07;;;9.48;;
34988;SDS011;21192;40.182;44.516;2024-02-23T12:29:27;22.52;;;10.32;;
34988;SDS011;21192;40.182;44.516;2024-02-23T12:32:06;17.58;;;10.02;;
34988;SDS011;21192;40.182;44.516;2024-02-23T12:34:32;14.82;;;9.77;;
34988;SDS011;21192;40.182;44.516;2024-02-23T12:37:01;17.65;;;10.15;;
34988;SDS011;21192;40.182;44.516;2024-02-23T12:39:28;13.15;;;9.00;;
34988;SDS011;21192;40.182;44.516;2024-02-23T12:41:54;19.85;;;10.52;;
34988;SDS011;21192;40.182;44.516;2024-02-23T12:44:22;20.83;;;11.57;;
34988;SDS011;21192;40.182;44.516;2024-02-23T12:46:47;16.65;;;10.85;;
34988;SDS011;21192;40.182;44.516;2024-02-23T12:49:13;17.13;;;10.15;;
34988;SDS011;21192;40.182;44.516;2024-02-23T12:51:41;16.83;;;10.02;;
34988;SDS011;21192;40.182;44.516;2024-02-23T12:54:07;21.02;;;10.38;;
34988;SDS011;21192;40.182;44.516;2024-02-23T12:56:33;23.33;;;14.15;;
34988;SDS011;21192;40.182;44.516;2024-02-23T12:58:59;16.48;;;10.13;;
34988;SDS011;21192;40.182;44.516;2024-02-23T13:01:25;21.10;;;13.02;;
34988;SDS011;21192;40.182;44.516;2024-02-23T13:03:50;15.45;;;9.05;;
34988;SDS011;21192;40.182;44.516;2024-02-23T13:06:17;16.15;;;9.43;;
34988;SDS011;21192;40.182;44.516;2024-02-23T13:08:43;17.25;;;10.10;;
34988;SDS011;21192;40.182;44.516;2024-02-23T13:11:09;17.80;;;9.68;;
34988;SDS011;21192;40.182;44.516;2024-02-23T13:13:35;16.38;;;9.95;;
34988;SDS011;21192;40.182;44.516;2024-02-23T13:16:00;19.20;;;8.98;;
34988;SDS011;21192;40.182;44.516;2024-02-23T13:18:26;12.48;;;7.13;;
34988;SDS011;21192;40.182;44.516;2024-02-23T13:20:52;17.40;;;7.93;;
34988;SDS011;21192;40.182;44.516;2024-02-23T13:23:18;11.93;;;7.45;;
34988;SDS011;21192;40.182;44.516;2024-02-23T13:25:44;15.43;;;7.47;;
34988;SDS011;21192;40.182;44.516;2024-02-23T13:28:11;19.90;;;8.80;;
34988;SDS011;21192;40.182;44.516;2024-02-23T13:30:37;13.45;;;8.07;;
34988;SDS011;21192;40.182;44.516;2024-02-23T13:33:04;17.65;;;8.40;;
34988;SDS011;21192;40.182;44.516;2024-02-23T13:35:31;17.40;;;8.32;;
34988;SDS011;21192;40.182;44.516;2024-02-23T13:37:57;15.00;;;7.95;;
34988;SDS011;21192;40.182;44.516;2024-02-23T13:40:23;18.67;;;10.55;;
34988;SDS011;21192;40.182;44.516;2024-02-23T13:42:49;15.00;;;7.43;;
34988;SDS011;21192;40.182;44.516;2024-02-23T13:45:17;19.05;;;8.65;;
34988;SDS011;21192;40.182;44.516;2024-02-23T13:47:54;17.40;;;8.77;;
34988;SDS011;21192;40.182;44.516;2024-02-23T13:50:22;18.42;;;8.70;;
34988;SDS011;21192;40.182;44.516;2024-02-23T13:52:48;18.75;;;9.50;;
34988;SDS011;21192;40.182;44.516;2024-02-23T13:55:14;21.17;;;10.77;;
34988;SDS011;21192;40.182;44.516;2024-02-23T13:57:40;14.18;;;9.45;;
34988;SDS011;21192;40.182;44.516;2024-02-23T14:00:06;19.80;;;11.73;;
34988;SDS011;21192;40.182;44.516;2024-02-23T14:02:37;13.30;;;8.75;;
34988;SDS011;21192;40.182;44.516;2024-02-23T14:05:06;17.83;;;9.88;;
34988;SDS011;21192;40.182;44.516;2024-02-23T14:07:32;30.85;;;18.50;;
34988;SDS011;21192;40.182;44.516;2024-02-23T14:09:59;21.98;;;12.77;;
34988;SDS011;21192;40.182;44.516;2024-02-23T14:12:25;20.15;;;11.18;;
34988;SDS011;21192;40.182;44.516;2024-02-23T14:14:51;18.67;;;10.77;;